Flight Track Log - Related Links

Times and Time Zones

All times are in EDT time to prevent confusion due to time zone crossing. See the DAL3691 flight status page for this flight to view local times or setup timezone preferences in your user account.

Time Position Orientation Groundspeed Altitude Reporting Facility
EDT Latitude Longitude Course Direction KTS MPH feet Rate Location/Type
Wed 11:48:29 AM 38.7667 -90.4000 360° North 175 201 2,100  Level Gateway (St. Louis) TRACON
Wed 11:49:29 AM 38.8167 -90.4000 360° North 237 273 3,800 1,333 Climbing Gateway (St. Louis) TRACON
Wed 11:49:59 AM 38.8314 -90.3750 53° Northeast 243 280 4,100 1,780 Climbing Kansas City Center
Wed 11:51:00 AM 38.8464 -90.2733 79° East 282 325 6,500 2,400 Climbing Kansas City Center
Wed 11:52:04 AM 38.8206 -90.1719 108° East 295 339 9,100 2,208 Climbing Kansas City Center
Wed 11:53:05 AM 38.7728 -90.0500 117° Southeast 322 371 11,100 1,920 Climbing Kansas City Center
Wed 11:54:09 AM 38.7281 -89.9350 116° Southeast 357 411 13,100 1,824 Climbing Kansas City Center
Wed 11:55:10 AM 38.6819 -89.8147 116° Southeast 375 432 14,900 1,820 Climbing Kansas City Center
Wed 11:56:11 AM 38.6328 -89.6914 117° Southeast 387 445 16,800 1,824 Climbing Kansas City Center
Wed 11:57:15 AM 38.5800 -89.5631 118° Southeast 401 461 18,700 1,824 Climbing Kansas City Center
Wed 11:58:16 AM 38.5283 -89.4358 117° Southeast 403 464 20,600 1,694 Climbing Kansas City Center
Wed 11:59:19 AM 38.4658 -89.2803 117° Southeast 403 464 22,200 1,463 Climbing Kansas City Center
Wed 12:00:19 PM 38.4119 -89.1467 117° Southeast 416 479 23,600 1,306 Climbing Kansas City Center
Wed 12:01:23 PM 38.3628 -88.9983 113° Southeast 437 503 24,900 1,210 Climbing Kansas City Center
Wed 12:02:23 PM 38.3144 -88.8606 114° Southeast 445 512 26,100 1,296 Climbing Kansas City Center
Wed 12:03:28 PM 38.2639 -88.7156 114° Southeast 449 517 27,600 1,104 Climbing Kansas City Center
Wed 12:04:28 PM 38.2100 -88.5675 115° Southeast 450 518 28,400 885 Climbing Kansas City Center
Wed 12:05:30 PM 38.1483 -88.3864 113° Southeast 462 532 29,400 1,152 Climbing Kansas City Center
Wed 12:06:33 PM 38.1261 -88.2233 100° East 483 556 30,800 1,309 Climbing Kansas City Center
Wed 12:07:20 PM 38.1294 -88.0958 88° East 466 536 31,800 1,046 Climbing Indianapolis Center
Wed 12:08:22 PM 38.1292 -87.9333 90° East 459 528 32,700 871 Climbing Indianapolis Center
Wed 12:09:24 PM 38.1286 -87.7697 90° East 460 529 33,600 919 Climbing Indianapolis Center
Wed 12:10:26 PM 38.1275 -87.6072 90° East 460 529 34,600 677 Climbing Indianapolis Center
Wed 12:11:28 PM 38.1133 -87.4478 96° East 459 528 35,000 194 Climbing Indianapolis Center
Wed 12:12:30 PM 38.0961 -87.2506 96° East 467 537 35,000  Level Indianapolis Center
Wed 12:13:32 PM 38.0819 -87.0831 96° East 479 551 35,000  Level Indianapolis Center
Wed 12:14:34 PM 38.0678 -86.9156 96° East 480 552 35,000  Level Indianapolis Center
Wed 12:15:36 PM 38.0539 -86.7500 96° East 480 552 35,000  Level Indianapolis Center
Wed 12:16:38 PM 38.0403 -86.5861 96° East 475 547 35,000  Level Indianapolis Center
Wed 12:17:40 PM 38.0233 -86.3908 96° East 469 540 35,000  Level Indianapolis Center
Wed 12:18:42 PM 38.0078 -86.2289 97° East 467 537 35,000  Level Indianapolis Center
Wed 12:19:44 PM 37.9931 -86.0675 97° East 465 535 35,000  Level Indianapolis Center
Wed 12:20:45 PM 37.9769 -85.9044 97° East 464 534 35,000  Level Indianapolis Center
Wed 12:21:47 PM 37.9622 -85.7386 96° East 466 536 35,000  Level Indianapolis Center
Wed 12:22:49 PM 37.9444 -85.5728 98° East 472 543 35,000  Level Indianapolis Center
Wed 12:23:51 PM 37.9281 -85.4047 97° East 476 548 35,000  Level Indianapolis Center
Wed 12:24:53 PM 37.9072 -85.2036 97° East 478 550 35,000  Level Indianapolis Center
Wed 12:25:55 PM 37.8906 -85.0342 97° East 478 550 35,000  Level Indianapolis Center
Wed 12:26:57 PM 37.8733 -84.8692 97° East 476 548 35,000  Level Indianapolis Center
Wed 12:27:59 PM 37.8564 -84.7053 97° East 473 544 35,000  Level Indianapolis Center
Wed 12:29:00 PM 37.8425 -84.5419 96° East 470 541 35,000  Level Indianapolis Center
Wed 12:30:02 PM 37.8478 -84.3794 88° East 460 529 35,000  Level Indianapolis Center
Wed 12:31:04 PM 37.8517 -84.2219 88° East 456 525 35,000  Level Indianapolis Center
Wed 12:32:06 PM 37.8542 -84.0356 89° East 455 524 35,000  Level Indianapolis Center
Wed 12:33:08 PM 37.8578 -83.8781 88° East 453 521 35,000  Level Indianapolis Center
Wed 12:34:10 PM 37.8608 -83.7219 89° East 448 516 35,000  Level Indianapolis Center
Wed 12:35:11 PM 37.8639 -83.5647 89° East 447 514 35,000  Level Indianapolis Center
Wed 12:36:13 PM 37.8667 -83.4056 89° East 447 514 35,000  Level Indianapolis Center
Wed 12:37:15 PM 37.8692 -83.2489 89° East 447 514 35,000  Level Indianapolis Center
Wed 12:38:17 PM 37.8711 -83.0931 89° East 447 514 35,000  Level Indianapolis Center
Wed 12:39:19 PM 37.8739 -82.9078 89° East 447 514 35,000  Level Indianapolis Center
Wed 12:40:21 PM 37.8750 -82.7475 89° East 448 516 35,000  Level Indianapolis Center
Wed 12:41:22 PM 37.8769 -82.5869 89° East 451 519 35,000  Level Indianapolis Center
Wed 12:42:24 PM 37.8775 -82.4236 90° East 457 526 35,000  Level Indianapolis Center
Wed 12:43:26 PM 37.8786 -82.2603 89° East 461 531 35,000  Level Indianapolis Center
Wed 12:44:28 PM 37.8792 -82.0967 90° East 461 531 35,000  Level Indianapolis Center
Wed 12:45:30 PM 37.8803 -81.9339 89° East 461 531 35,000  Level Indianapolis Center
Wed 12:46:32 PM 37.8800 -81.7389 90° East 463 533 35,000  Level Indianapolis Center
Wed 12:47:34 PM 37.8806 -81.5767 90° East 463 533 35,000  Level Indianapolis Center
Wed 12:48:35 PM 37.8800 -81.4172 90° East 462 532 35,000  Level Indianapolis Center
Wed 12:49:37 PM 37.8803 -81.2558 90° East 462 532 35,000  Level Indianapolis Center
Wed 12:50:39 PM 37.8797 -81.0958 90° East 462 532 35,000  Level Indianapolis Center
Wed 12:51:41 PM 37.8789 -80.9378 90° East 455 524 35,000  Level Indianapolis Center
Wed 12:52:43 PM 37.8778 -80.7497 90° East 452 520 35,000  Level Indianapolis Center
Wed 12:53:45 PM 37.8767 -80.5928 90° East 451 519 35,000  Level Indianapolis Center
Wed 12:54:47 PM 37.8756 -80.4564 91° East 447 514 35,000  Level Indianapolis Center
Wed 12:55:48 PM 37.8739 -80.2694 91° East 445 512 35,000  Level Indianapolis Center
Wed 12:56:50 PM 37.8717 -80.1139 91° East 445 512 35,000  Level Indianapolis Center
Wed 12:57:52 PM 37.8700 -79.9581 91° East 444 511 35,000  Level Indianapolis Center
Wed 12:58:54 PM 37.8672 -79.7997 91° East 445 512 35,000  Level Indianapolis Center
Wed 12:59:56 PM 37.8767 -79.6400 86° East 446 513 35,000  Level Indianapolis Center
Wed 01:00:58 PM 37.8922 -79.4794 83° East 452 520 35,000  Level Indianapolis Center
Wed 01:02:13 PM 37.9164 -79.2822 81° East 451 519 35,000  Level Washington Center
Wed 01:03:14 PM 37.9317 -79.1222 83° East 456 525 35,000  Level Washington Center
Wed 01:04:12 PM 37.9467 -78.9625 83° East 461 531 35,000  Level Washington Center
Wed 01:05:13 PM 37.9594 -78.8022 84° East 461 531 35,000  Level Washington Center
Wed 01:06:13 PM 37.9761 -78.6422 82° East 461 531 35,000  Level Washington Center
Wed 01:07:13 PM 37.9883 -78.4847 84° East 461 531 35,000  Level Washington Center
Wed 01:08:14 PM 38.0022 -78.3325 83° East 448 516 35,000  Level Washington Center
Wed 01:09:12 PM 38.0144 -78.1589 85° East 443 510 35,000  Level Washington Center
Wed 01:10:13 PM 38.0217 -78.0061 87° East 443 510 35,000  Level Washington Center
Wed 01:11:13 PM 38.0311 -77.8536 85° East 443 510 35,000  Level Washington Center
Wed 01:12:14 PM 38.0400 -77.6983 86° East 443 510 35,000 -454 Level Washington Center
Wed 01:13:12 PM 38.0531 -77.5431 84° East 443 510 34,100 -966 Descending Washington Center
Wed 01:14:12 PM 38.0847 -77.3908 75° East 443 510 33,100 -550 Descending Washington Center
Wed 01:15:12 PM 38.1139 -77.2411 76° East 443 510 33,000 -50 Descending Washington Center
Wed 01:16:12 PM 38.1472 -77.0889 74° East 443 510 33,000  Level Washington Center
Wed 01:17:13 PM 38.1803 -76.9361 75° East 443 510 33,000  Level Washington Center
Wed 01:18:13 PM 38.2111 -76.7808 76° East 443 510 33,000  Level Washington Center
Wed 01:19:12 PM 38.2417 -76.6253 76° East 443 510 33,000 -101 Level Washington Center
Wed 01:20:12 PM 38.2867 -76.4753 69° East 448 516 32,800 -793 Descending Washington Center
Wed 01:21:13 PM 38.3708 -76.3622 46° Northeast 438 504 31,400 -1,328 Descending Washington Center
Wed 01:22:14 PM 38.4675 -76.2653 38° Northeast 433 498 30,100 -1,311 Descending Washington Center
Wed 01:23:12 PM 38.5639 -76.1572 41° Northeast 427 491 28,800 -1,311 Descending Washington Center
Wed 01:24:13 PM 38.6558 -76.0650 38° Northeast 454 522 27,500 -885 Descending Washington Center
Wed 01:25:14 PM 38.7606 -75.9617 38° Northeast 465 535 27,000 -248 Descending Washington Center
Wed 01:26:14 PM 38.8631 -75.8661 36° Northeast 465 535 27,000  Level Washington Center
Wed 01:27:12 PM 38.9653 -75.7706 36° Northeast 458 527 27,000 -51 Level Washington Center
Wed 01:28:12 PM 39.0675 -75.6719 37° Northeast 458 527 26,900 -793 Descending Washington Center
Wed 01:29:13 PM 39.1656 -75.5783 36° Northeast 458 527 25,400 -1,426 Descending Washington Center
Wed 01:30:14 PM 39.2656 -75.4844 36° Northeast 453 521 24,000 -1,488 Descending Washington Center
Wed 01:31:14 PM 39.3633 -75.4011 33° Northeast 434 499 22,400 -1,714 Descending Washington Center
Wed 01:32:13 PM 39.4589 -75.3175 34° Northeast 419 482 20,600 -1,664 Descending Washington Center
Wed 01:33:13 PM 39.5506 -75.2308 36° Northeast 413 475 19,100 -1,462 Descending Washington Center
Wed 01:34:12 PM 39.6419 -75.1442 36° Northeast 408 470 17,700 -1,462 Descending Washington Center
Wed 01:35:12 PM 39.7414 -75.0544 35° Northeast 402 463 16,200 -1,488 Descending Washington Center
Wed 01:36:13 PM 39.8369 -74.9781 32° Northeast 396 456 14,700 -1,445 Descending Washington Center
Wed 01:38:23 PM 40.0167 -74.7667 42° Northeast 381 438 11,600 -1,421 Descending New York TRACON
Wed 01:39:23 PM 40.0833 -74.6667 49° Northeast 362 417 10,200 -842 Descending New York TRACON
Wed 01:40:17 PM 40.1333 -74.5833 52° Northeast 323 372 10,000 -474 Descending New York TRACON
Wed 01:41:17 PM 40.2000 -74.5500 21° North 267 307 9,300 -850 Descending New York TRACON
Wed 01:42:17 PM 40.2833 -74.5500 360° North 267 307 8,300 -650 Descending New York TRACON
Wed 01:43:17 PM 40.3167 -74.4500 66° East 301 346 8,000 -619 Descending New York TRACON
Wed 01:44:23 PM 40.3333 -74.3333 79° East 302 348 7,000 -476 Descending New York TRACON
Wed 01:45:23 PM 40.3833 -74.2667 45° Northeast 239 275 7,000  Level New York TRACON
Wed 01:46:23 PM 40.4333 -74.2167 37° Northeast 232 267 7,000 -550 Level New York TRACON
Wed 01:47:23 PM 40.4667 -74.1667 49° Northeast 202 232 5,900 -1,350 Descending New York TRACON
Wed 01:48:23 PM 40.5167 -74.1167 37° Northeast 201 231 4,300 -1,474 Descending New York TRACON
Wed 01:49:17 PM 40.5500 -74.0833 37° Northeast 200 230 3,100 -684 Descending New York TRACON
Wed 01:50:17 PM 40.5833 -74.0333 49° Northeast 198 228 3,000 -50 Descending New York TRACON
Wed 01:51:17 PM 40.6333 -74.0000 27° Northeast 193 222 3,000 -250 Level New York TRACON
Wed 01:52:17 PM 40.6833 -73.9500 37° Northeast 189 217 2,500 -350 Descending New York TRACON
Wed 01:53:17 PM 40.7167 -73.9167 37° Northeast 167 192 2,300 -550 Descending New York TRACON
Wed 01:54:17 PM 40.7333 -73.8500 72° East 166 191 1,400 -850 Descending New York TRACON
Wed 01:55:17 PM 40.7500 -73.8167 57° Northeast 151 174 600 -600 Descending New York TRACON
Wed 01:56:17 PM 40.7667 -73.8500 303° West 126 145 200 -400 Descending New York TRACON

Login

Don't have an account? Register now (free) for customized features, flight alerts, and more!